createdAt,value
2023-12-02T00:01:01.833Z,0.88
2023-12-02T00:04:04.750Z,0.88
2023-12-02T00:07:07.396Z,0.80
2023-12-02T00:10:12.323Z,0.74
2023-12-02T00:13:15.093Z,0.77
2023-12-02T00:16:17.789Z,0.69
2023-12-02T00:19:20.618Z,0.76
2023-12-02T00:22:23.348Z,0.72
2023-12-02T00:25:26.260Z,0.78
2023-12-02T00:28:29.040Z,0.70
2023-12-02T00:31:31.706Z,0.81
2023-12-02T00:34:34.525Z,0.79
2023-12-02T00:37:37.360Z,0.90
2023-12-02T00:40:40.150Z,0.85
2023-12-02T00:43:42.849Z,0.88
2023-12-02T00:46:45.650Z,1.03
2023-12-02T00:49:48.528Z,1.03
2023-12-02T00:52:51.275Z,0.93
2023-12-02T00:55:53.942Z,0.77
2023-12-02T00:58:56.583Z,0.79
2023-12-02T01:01:59.358Z,0.73
2023-12-02T01:05:03.237Z,0.67
2023-12-02T01:08:06.016Z,0.65
2023-12-02T01:11:08.977Z,0.63
2023-12-02T01:14:11.780Z,0.70
2023-12-02T01:17:14.885Z,0.66
2023-12-02T01:20:17.770Z,0.69
2023-12-02T01:23:20.479Z,0.68
2023-12-02T01:26:23.234Z,0.76
2023-12-02T01:29:25.934Z,0.73
2023-12-02T01:32:28.790Z,0.70
2023-12-02T01:35:31.556Z,0.67
2023-12-02T01:38:34.178Z,0.69
2023-12-02T01:41:36.987Z,0.74
2023-12-02T01:44:39.787Z,0.70
2023-12-02T01:47:43.445Z,0.67
2023-12-02T01:50:46.210Z,0.70
2023-12-02T01:53:48.926Z,0.72
2023-12-02T01:56:51.675Z,0.76
2023-12-02T02:00:07.252Z,0.86
2023-12-02T02:03:14.472Z,0.84
2023-12-02T02:06:17.221Z,0.87
2023-12-02T02:09:20.100Z,0.85
2023-12-02T02:12:22.952Z,0.89
2023-12-02T02:15:25.651Z,0.76
2023-12-02T02:18:33.759Z,0.67
2023-12-02T02:21:37.212Z,0.68
2023-12-02T02:24:40.313Z,0.67
2023-12-02T02:27:43.010Z,0.62
2023-12-02T02:30:45.729Z,0.63
2023-12-02T02:33:48.493Z,0.65
2023-12-02T02:36:51.233Z,0.75
2023-12-02T02:39:53.896Z,0.84
2023-12-02T02:42:56.614Z,0.82
2023-12-02T02:45:59.249Z,0.77
2023-12-02T02:49:02.055Z,0.82
2023-12-02T02:52:04.942Z,0.84
2023-12-02T02:55:07.840Z,0.82
2023-12-02T02:58:10.583Z,0.83
2023-12-02T03:01:13.533Z,0.82
2023-12-02T03:04:16.416Z,0.82
2023-12-02T03:07:19.185Z,0.73
2023-12-02T03:10:22.956Z,0.84
2023-12-02T03:13:25.670Z,0.83
2023-12-02T03:16:28.351Z,0.86
2023-12-02T03:19:31.111Z,0.72
2023-12-02T03:22:33.824Z,0.74
2023-12-02T03:25:36.562Z,0.70
2023-12-02T03:28:39.197Z,0.69
2023-12-02T03:31:42.044Z,0.74
2023-12-02T03:34:44.947Z,0.64
2023-12-02T03:37:47.749Z,0.64
2023-12-02T03:40:50.427Z,0.64
2023-12-02T03:43:58.549Z,0.61
2023-12-02T03:47:02.036Z,0.56
2023-12-02T03:50:06.352Z,0.52
2023-12-02T03:53:09.122Z,0.63
2023-12-02T03:56:12.121Z,0.62
2023-12-02T03:59:14.765Z,0.60
2023-12-02T04:02:17.448Z,0.68
2023-12-02T04:05:21.152Z,0.72
2023-12-02T04:08:24.152Z,0.75
2023-12-02T04:11:27.720Z,0.73
2023-12-02T04:14:31.680Z,0.74
2023-12-02T04:17:34.707Z,0.76
2023-12-02T04:20:37.898Z,0.75
2023-12-02T04:23:41.121Z,0.68
2023-12-02T04:26:44.618Z,0.68
2023-12-02T04:29:47.641Z,0.76
2023-12-02T04:32:51.292Z,0.73
2023-12-02T04:35:55.617Z,0.80
2023-12-02T04:38:59.436Z,0.76
2023-12-02T04:42:02.233Z,0.84
2023-12-02T04:45:07.100Z,0.74
2023-12-02T04:48:10.495Z,0.70
2023-12-02T04:51:14.400Z,0.68
2023-12-02T04:54:17.210Z,0.72
2023-12-02T04:57:21.176Z,0.70
2023-12-02T05:00:25.133Z,0.69
2023-12-02T05:03:31.514Z,0.67
2023-12-02T05:06:34.699Z,0.66
2023-12-02T05:09:39.327Z,0.66
2023-12-02T05:12:42.809Z,0.68
2023-12-02T05:15:53.169Z,0.63
2023-12-02T05:18:57.132Z,0.71
2023-12-02T05:22:00.571Z,0.66
2023-12-02T05:25:04.177Z,0.61
2023-12-02T05:28:08.041Z,0.57
2023-12-02T05:31:11.914Z,0.60
2023-12-02T05:34:15.224Z,0.62
2023-12-02T05:37:21.999Z,0.63
2023-12-02T05:40:24.766Z,0.67
2023-12-02T05:43:27.964Z,0.66
2023-12-02T05:46:31.222Z,0.59
2023-12-02T05:49:36.439Z,0.66
2023-12-02T05:52:39.294Z,0.65
2023-12-02T05:55:44.347Z,0.69
2023-12-02T05:58:47.804Z,0.70
2023-12-02T06:01:51.951Z,0.73
2023-12-02T06:04:55.354Z,0.66
2023-12-02T06:07:58.944Z,0.65
2023-12-02T06:11:03.504Z,0.63
2023-12-02T06:14:07.524Z,0.79
2023-12-02T06:17:10.979Z,0.78
2023-12-02T06:20:15.533Z,0.69
2023-12-02T06:23:18.395Z,0.63
2023-12-02T06:26:21.870Z,0.59
2023-12-02T06:29:25.533Z,0.53
2023-12-02T06:32:28.978Z,0.55
2023-12-02T06:35:32.449Z,0.53
2023-12-02T06:38:35.419Z,0.54
2023-12-02T06:41:48.605Z,0.50
2023-12-02T06:44:59.219Z,0.42
2023-12-02T06:48:03.780Z,0.39
2023-12-02T06:51:12.875Z,0.30
2023-12-02T06:54:16.420Z,0.31
2023-12-02T06:57:22.717Z,0.30
2023-12-02T07:00:25.576Z,0.23
2023-12-02T07:03:29.811Z,0.28
2023-12-02T07:06:33.355Z,0.27
2023-12-02T07:09:38.204Z,0.23
2023-12-02T07:12:41.533Z,0.23
2023-12-02T07:15:44.933Z,0.27
2023-12-02T07:18:48.256Z,0.30
2023-12-02T07:21:56.114Z,0.22
2023-12-02T07:24:59.680Z,0.25
2023-12-02T07:28:03.357Z,0.23
2023-12-02T07:31:06.729Z,0.25
2023-12-02T07:34:12.848Z,0.28
2023-12-02T07:37:15.686Z,0.26
2023-12-02T07:40:19.341Z,0.27
2023-12-02T07:43:22.609Z,0.22
2023-12-02T07:46:28.345Z,0.25
2023-12-02T07:49:31.360Z,0.26
2023-12-02T07:52:35.010Z,0.26
2023-12-02T07:55:37.927Z,0.24
2023-12-02T07:58:41.333Z,0.38
2023-12-02T08:01:46.063Z,0.31
2023-12-02T08:05:44.023Z,0.26
2023-12-02T08:08:13.469Z,0.30
2023-12-02T08:11:17.377Z,0.25
2023-12-02T08:14:20.328Z,0.22
2023-12-02T08:17:23.382Z,0.26
2023-12-02T08:20:26.802Z,0.20
2023-12-02T08:23:30.551Z,0.15
2023-12-02T08:26:34.017Z,0.22
2023-12-02T08:29:40.551Z,0.17
2023-12-02T08:32:43.826Z,0.26
2023-12-02T08:35:47.044Z,0.29
2023-12-02T08:38:50.220Z,0.17
2023-12-02T08:41:56.058Z,0.21
2023-12-02T08:45:05.011Z,0.08
2023-12-02T08:48:08.352Z,0.12
2023-12-02T08:51:15.745Z,0.15
2023-12-02T08:54:18.671Z,0.20
2023-12-02T08:57:22.740Z,0.17
2023-12-02T09:00:25.894Z,0.31
2023-12-02T09:03:32.559Z,0.27
2023-12-02T09:06:46.224Z,0.20
2023-12-02T09:09:57.865Z,0.14
2023-12-02T09:13:30.804Z,0.20
2023-12-02T09:16:48.358Z,0.10
2023-12-02T09:19:55.864Z,0.12
2023-12-02T09:23:02.783Z,0.18
2023-12-02T09:26:41.580Z,0.10
2023-12-02T09:29:54.853Z,0.03
2023-12-02T09:32:58.377Z,0.08
2023-12-02T09:36:03.428Z,0.07
2023-12-02T09:39:11.032Z,0.03
2023-12-02T09:42:15.196Z,0.06
2023-12-02T09:45:27.589Z,0.12
2023-12-02T09:48:53.165Z,-0.01
2023-12-02T09:52:26.822Z,0.07
2023-12-02T09:55:54.086Z,0.03
2023-12-02T09:59:21.651Z,-0.06
2023-12-02T10:03:04.062Z,-0.07
2023-12-02T10:06:16.305Z,-0.02
2023-12-02T10:09:42.276Z,0.03
2023-12-02T10:12:54.160Z,-0.03
2023-12-02T10:16:02.771Z,0.03
2023-12-02T10:19:07.009Z,0.01
2023-12-02T10:22:13.760Z,0.08
2023-12-02T10:25:44.308Z,0.09
2023-12-02T10:28:56.514Z,0.13
2023-12-02T10:32:09.134Z,0.09
2023-12-02T10:35:48.319Z,0.03
2023-12-02T10:39:13.423Z,0.12
2023-12-02T10:42:58.900Z,0.11
2023-12-02T10:46:02.303Z,0.04
2023-12-02T10:49:08.666Z,0.19
2023-12-02T10:55:22.018Z,0.10
2023-12-02T10:58:28.867Z,0.05
2023-12-02T11:01:57.656Z,0.09
2023-12-02T11:05:26.058Z,0.03
2023-12-02T11:08:52.887Z,-0.04
2023-12-02T11:12:03.233Z,0.08
2023-12-02T11:15:11.467Z,-0.01
2023-12-02T11:18:30.574Z,-0.06
2023-12-02T11:21:45.661Z,-0.09
2023-12-02T11:25:28.255Z,0.01
2023-12-02T11:28:38.846Z,-0.02
2023-12-02T11:32:03.992Z,0.13
2023-12-02T11:35:16.610Z,-0.09
2023-12-02T11:38:21.335Z,-0.06
2023-12-02T11:41:45.962Z,-0.09
2023-12-02T11:45:22.081Z,-0.10
2023-12-02T11:48:38.837Z,-0.15
2023-12-02T11:51:47.829Z,-0.05
2023-12-02T11:55:34.666Z,-0.22
2023-12-02T11:59:00.449Z,-0.17
2023-12-02T12:02:29.027Z,-0.31
2023-12-02T12:05:42.001Z,-0.27
2023-12-02T12:09:04.109Z,-0.29
2023-12-02T12:12:16.922Z,-0.19
2023-12-02T12:15:20.466Z,-0.16
2023-12-02T12:18:24.504Z,-0.30
2023-12-02T12:21:28.222Z,-0.23
2023-12-02T12:24:39.078Z,-0.40
2023-12-02T12:27:46.357Z,-0.36
2023-12-02T12:30:49.872Z,-0.42
2023-12-02T12:33:56.877Z,-0.42
2023-12-02T12:37:00.025Z,-0.48
2023-12-02T12:40:05.205Z,-0.40
2023-12-02T12:43:12.520Z,-0.40
2023-12-02T12:46:18.592Z,-0.34
2023-12-02T12:49:27.084Z,-0.34
2023-12-02T12:52:31.957Z,-0.39
2023-12-02T12:55:52.338Z,-0.47
2023-12-02T12:59:02.971Z,-0.43
2023-12-02T13:02:39.918Z,-0.48
2023-12-02T13:05:44.645Z,-0.54
2023-12-02T13:09:06.597Z,-0.41
2023-12-02T13:12:18.278Z,-0.43
2023-12-02T13:15:22.038Z,-0.57
2023-12-02T13:18:30.214Z,-0.67
2023-12-02T13:21:36.272Z,-0.62
2023-12-02T13:24:50.456Z,-0.68
2023-12-02T13:27:53.818Z,-0.60
2023-12-02T13:31:02.747Z,-0.84
2023-12-02T13:34:15.985Z,-0.82
2023-12-02T13:37:25.572Z,-0.82
2023-12-02T13:40:39.744Z,-0.97
2023-12-02T13:43:49.523Z,-0.88
2023-12-02T13:47:07.493Z,-0.96
2023-12-02T13:50:14.720Z,-1.07
2023-12-02T13:53:21.336Z,-1.10
2023-12-02T13:56:31.989Z,-1.06
2023-12-02T13:59:47.170Z,-1.02
2023-12-02T14:03:13.151Z,-1.07
2023-12-02T14:06:25.650Z,-1.12
2023-12-02T14:09:29.452Z,-1.11
2023-12-02T14:12:49.528Z,-1.21
2023-12-02T14:16:13.268Z,-1.23
2023-12-02T14:20:17.700Z,-1.21
2023-12-02T14:23:41.974Z,-1.25
2023-12-02T14:27:03.447Z,-1.36
2023-12-02T14:30:44.624Z,-1.11
2023-12-02T14:34:02.541Z,-1.17
2023-12-02T14:37:38.793Z,-1.16
2023-12-02T14:40:44.976Z,-1.11
2023-12-02T14:44:26.273Z,-1.22
2023-12-02T14:47:41.997Z,-1.04
2023-12-02T14:50:49.479Z,-1.03
2023-12-02T14:53:58.688Z,-1.12
2023-12-02T14:57:23.174Z,-1.34
2023-12-02T15:00:27.138Z,-1.47
2023-12-02T15:03:31.702Z,-1.37
2023-12-02T15:06:42.213Z,-1.44
2023-12-02T15:09:46.188Z,-1.23
2023-12-02T15:12:50.797Z,-1.40
2023-12-02T15:15:54.842Z,-1.41
2023-12-02T15:19:12.861Z,-1.43
2023-12-02T15:22:21.134Z,-1.50
2023-12-02T15:25:24.814Z,-1.53
2023-12-02T15:28:27.803Z,-1.56
2023-12-02T15:31:32.572Z,-1.59
2023-12-02T15:34:36.578Z,-1.63
2023-12-02T15:37:43.298Z,-1.60
2023-12-02T15:40:47.050Z,-1.77
2023-12-02T15:44:02.295Z,-1.82
2023-12-02T15:47:05.794Z,-1.81
2023-12-02T15:50:13.327Z,-1.89
2023-12-02T15:53:25.715Z,-1.96
2023-12-02T15:56:39.089Z,-1.94
2023-12-02T15:59:49.931Z,-1.85
2023-12-02T16:03:01.638Z,-1.92
2023-12-02T16:06:12.294Z,-1.98
2023-12-02T16:09:26.385Z,-2.10
2023-12-02T16:12:31.893Z,-1.99
2023-12-02T16:15:37.977Z,-2.03
2023-12-02T16:18:44.876Z,-2.00
2023-12-02T16:21:58.177Z,-2.03
2023-12-02T16:25:22.419Z,-2.03
2023-12-02T16:28:45.564Z,-2.09
2023-12-02T16:31:52.765Z,-2.25
2023-12-02T16:34:58.040Z,-2.20
2023-12-02T16:38:01.185Z,-2.21
2023-12-02T16:41:08.809Z,-2.18
2023-12-02T16:44:11.786Z,-2.25
2023-12-02T16:47:52.986Z,-2.31
2023-12-02T16:50:57.617Z,-2.31
2023-12-02T16:54:01.071Z,-2.28
2023-12-02T16:57:05.285Z,-2.40
2023-12-02T17:00:18.931Z,-2.34
2023-12-02T17:03:29.838Z,-2.41
2023-12-02T17:06:48.525Z,-2.45
2023-12-02T17:09:54.754Z,-2.53
2023-12-02T17:12:57.852Z,-2.59
2023-12-02T17:16:02.158Z,-2.54
2023-12-02T17:19:09.193Z,-2.52
2023-12-02T17:22:16.923Z,-2.65
2023-12-02T17:25:57.054Z,-2.65
2023-12-02T17:29:00.540Z,-2.63
2023-12-02T17:32:04.718Z,-2.66
2023-12-02T17:35:14.420Z,-2.66
2023-12-02T17:38:31.795Z,-2.62
2023-12-02T17:41:41.759Z,-2.62
2023-12-02T17:44:53.872Z,-2.70
2023-12-02T17:48:10.190Z,-2.65
2023-12-02T17:51:29.484Z,-2.55
2023-12-02T17:54:47.473Z,-2.56
2023-12-02T17:57:56.747Z,-2.62
2023-12-02T18:01:00.002Z,-2.52
2023-12-02T18:04:39.001Z,-2.54
2023-12-02T18:07:51.393Z,-2.52
2023-12-02T18:10:56.293Z,-2.51
2023-12-02T18:13:59.746Z,-2.44
2023-12-02T18:17:03.892Z,-2.43
2023-12-02T18:20:07.897Z,-2.41
2023-12-02T18:23:15.303Z,-2.42
2023-12-02T18:26:18.129Z,-2.46
2023-12-02T18:29:21.520Z,-2.40
2023-12-02T18:32:25.521Z,-2.41
2023-12-02T18:35:36.889Z,-2.43
2023-12-02T18:38:47.028Z,-2.44
2023-12-02T18:41:59.434Z,-2.40
2023-12-02T18:45:10.833Z,-2.46
2023-12-02T18:48:23.113Z,-2.51
2023-12-02T18:51:35.630Z,-2.61
2023-12-02T18:54:46.548Z,-2.64
2023-12-02T18:57:57.613Z,-2.53
2023-12-02T19:01:00.670Z,-2.59
2023-12-02T19:04:09.048Z,-2.51
2023-12-02T19:07:15.057Z,-2.54
2023-12-02T19:10:18.154Z,-2.60
2023-12-02T19:13:22.440Z,-2.56
2023-12-02T19:16:25.554Z,-2.54
2023-12-02T19:19:34.460Z,-2.54
2023-12-02T19:22:42.082Z,-2.49
2023-12-02T19:25:46.110Z,-2.52
2023-12-02T19:28:54.085Z,-2.47
2023-12-02T19:31:57.943Z,-2.48
2023-12-02T19:35:04.393Z,-2.53
2023-12-02T19:38:09.374Z,-2.57
2023-12-02T19:41:12.753Z,-2.51
2023-12-02T19:44:18.774Z,-2.62
2023-12-02T19:47:22.058Z,-2.56
2023-12-02T19:50:27.707Z,-2.59
2023-12-02T19:53:31.061Z,-2.52
2023-12-02T19:56:36.064Z,-2.50
2023-12-02T19:59:39.373Z,-2.55
2023-12-02T20:02:43.950Z,-2.55
2023-12-02T20:05:47.174Z,-2.49
2023-12-02T20:08:51.007Z,-2.47
2023-12-02T20:11:54.015Z,-2.38
2023-12-02T20:14:58.191Z,-2.40
2023-12-02T20:18:01.939Z,-2.37
2023-12-02T20:21:09.942Z,-2.38
2023-12-02T20:24:22.312Z,-2.37
2023-12-02T20:27:26.276Z,-2.33
2023-12-02T20:30:32.377Z,-2.34
2023-12-02T20:33:38.882Z,-2.36
2023-12-02T20:36:42.715Z,-2.30
2023-12-02T20:39:47.017Z,-2.37
2023-12-02T20:42:50.235Z,-2.36
2023-12-02T20:45:53.910Z,-2.38
2023-12-02T20:48:58.453Z,-2.39
2023-12-02T20:52:03.746Z,-2.42
2023-12-02T20:55:07.578Z,-2.40
2023-12-02T20:58:12.236Z,-2.40
2023-12-02T21:01:15.059Z,-2.46
2023-12-02T21:04:20.859Z,-2.36
2023-12-02T21:07:24.538Z,-2.40
2023-12-02T21:10:28.157Z,-2.37
2023-12-02T21:13:31.509Z,-2.34
2023-12-02T21:16:37.107Z,-2.28
2023-12-02T21:19:40.458Z,-2.38
2023-12-02T21:22:45.050Z,-2.39
2023-12-02T21:25:48.314Z,-2.39
2023-12-02T21:28:51.836Z,-2.41
2023-12-02T21:31:55.024Z,-2.44
2023-12-02T21:35:13.684Z,-2.42
2023-12-02T21:38:47.645Z,-2.49
2023-12-02T21:41:56.096Z,-2.43
2023-12-02T21:44:59.324Z,-2.42
2023-12-02T21:48:07.717Z,-2.46
2023-12-02T21:51:30.585Z,-2.47
2023-12-02T21:54:37.104Z,-2.47
2023-12-02T21:57:40.982Z,-2.56
2023-12-02T22:00:44.040Z,-2.51
2023-12-02T22:03:47.594Z,-2.51
2023-12-02T22:07:06.731Z,-2.49
2023-12-02T22:10:29.471Z,-2.42
2023-12-02T22:13:34.944Z,-2.37
2023-12-02T22:16:38.326Z,-2.36
2023-12-02T22:19:42.652Z,-2.36
2023-12-02T22:22:46.341Z,-2.45
2023-12-02T22:25:52.336Z,-2.43
2023-12-02T22:28:57.587Z,-2.46
2023-12-02T22:32:01.653Z,-2.49
2023-12-02T22:35:06.411Z,-2.53
2023-12-02T22:38:38.530Z,-2.60
2023-12-02T22:41:44.489Z,-2.67
2023-12-02T22:44:49.083Z,-2.63
2023-12-02T22:47:52.753Z,-2.64
2023-12-02T22:50:57.250Z,-2.74
2023-12-02T22:54:01.194Z,-2.73
2023-12-02T22:57:05.676Z,-2.67
2023-12-02T23:00:21.078Z,-2.60
2023-12-02T23:03:28.232Z,-2.70
2023-12-02T23:06:32.197Z,-2.76
2023-12-02T23:09:53.675Z,-2.69
2023-12-02T23:12:58.266Z,-2.74
2023-12-02T23:16:05.940Z,-2.63
2023-12-02T23:19:24.193Z,-2.64
2023-12-02T23:22:27.558Z,-2.61
2023-12-02T23:25:30.793Z,-2.76
2023-12-02T23:28:35.810Z,-2.44
2023-12-02T23:31:41.700Z,-2.40
2023-12-02T23:34:48.005Z,-2.50
2023-12-02T23:37:55.885Z,-2.37
2023-12-02T23:40:59.226Z,-2.52
2023-12-02T23:44:09.085Z,-2.44
2023-12-02T23:47:15.416Z,-2.47
2023-12-02T23:50:22.716Z,-2.42
2023-12-02T23:53:25.735Z,-2.26
2023-12-02T23:56:30.163Z,-2.24
2023-12-02T23:59:34.002Z,-2.48
